Time;durP1;ratioP1;P1;durP2;ratioP2;P2;SDS_P1;SDS_P2;PMS_P1;PMS_P2;Temp;Humidity;BMP_temperature;BMP_pressure;BME280_temperature;BME280_humidity;BME280_pressure;Samples;Min_cycle;Max_cycle;Signal;HPM_P1;HPM_P2
2022/05/14 00:03:59;;;;;;;13.07;8.23;;;;;;;;;;10471943;28;19913;-73
2022/05/14 00:09:04;;;;;;;13.57;8.18;;;;;;;;;;10420860;28;20049;-74
2022/05/14 00:14:06;;;;;;;12.95;7.47;;;;;;;;;;10443923;28;20044;-73
2022/05/14 00:19:07;;;;;;;11.45;8.38;;;;;;;;;;10425670;28;20036;-77
2022/05/14 00:24:08;;;;;;;11.07;8.30;;;;;;;;;;10425721;28;20477;-73
2022/05/14 00:29:08;;;;;;;13.25;9.55;;;;;;;;;;10425769;28;20025;-70
2022/05/14 00:34:09;;;;;;;13.10;9.23;;;;;;;;;;10426024;28;20444;-73
2022/05/14 00:39:09;;;;;;;13.23;9.50;;;;;;;;;;10408499;28;20017;-74
2022/05/14 00:44:09;;;;;;;17.57;9.27;;;;;;;;;;10442289;28;20565;-73
2022/05/14 00:49:11;;;;;;;12.98;9.23;;;;;;;;;;10442343;28;20111;-68
2022/05/14 00:54:18;;;;;;;19.27;10.30;;;;;;;;;;10442264;28;20516;-71
2022/05/14 00:59:20;;;;;;;17.70;10.13;;;;;;;;;;10424725;28;20028;-75
2022/05/14 01:04:21;;;;;;;15.63;9.82;;;;;;;;;;10420298;28;20037;-72
2022/05/14 01:09:21;;;;;;;11.25;9.27;;;;;;;;;;10460230;28;20052;-71
2022/05/14 01:14:22;;;;;;;14.50;9.15;;;;;;;;;;10503512;22;20027;-73
2022/05/14 01:19:22;;;;;;;13.25;10.02;;;;;;;;;;10440999;28;20037;-72
2022/05/14 01:30:00;;;;;;;19.20;9.68;;;;;;;;;;10446763;28;20530;-73
2022/05/14 01:35:00;;;;;;;14.53;9.93;;;;;;;;;;10439400;28;20017;-69
2022/05/14 01:40:00;;;;;;;16.40;9.52;;;;;;;;;;10423490;28;20234;-71
2022/05/14 01:45:01;;;;;;;13.13;9.73;;;;;;;;;;10423389;28;20037;-70
2022/05/14 01:50:01;;;;;;;16.88;10.77;;;;;;;;;;10423138;28;20025;-72
2022/05/14 01:55:02;;;;;;;19.80;11.35;;;;;;;;;;10455834;28;20031;-70
2022/05/14 02:00:06;;;;;;;15.65;10.20;;;;;;;;;;10455386;28;20017;-74
2022/05/14 02:05:07;;;;;;;16.80;10.80;;;;;;;;;;10454012;28;20024;-68
2022/05/14 02:10:07;;;;;;;13.32;9.52;;;;;;;;;;10443156;28;20021;-71
2022/05/14 02:15:08;;;;;;;18.45;9.23;;;;;;;;;;10421846;28;20033;-74
2022/05/14 02:20:08;;;;;;;12.13;9.40;;;;;;;;;;10436323;28;20384;-73
2022/05/14 02:25:09;;;;;;;16.17;10.67;;;;;;;;;;10396949;28;20036;-76
2022/05/14 02:30:10;;;;;;;17.33;10.10;;;;;;;;;;10399523;28;20375;-75
2022/05/14 02:35:10;;;;;;;18.45;11.45;;;;;;;;;;10396833;28;20025;-74
2022/05/14 02:40:11;;;;;;;17.75;10.52;;;;;;;;;;10413106;28;20548;-74
2022/05/14 02:45:12;;;;;;;21.65;10.35;;;;;;;;;;10406096;28;20492;-75
2022/05/14 02:50:12;;;;;;;20.43;10.70;;;;;;;;;;10406378;28;20108;-69
2022/05/14 02:55:13;;;;;;;13.82;9.13;;;;;;;;;;10405183;28;20026;-74
2022/05/14 03:00:16;;;;;;;11.85;8.40;;;;;;;;;;10404584;28;20026;-74
2022/05/14 03:05:18;;;;;;;20.40;12.07;;;;;;;;;;10405865;28;20029;-72
2022/05/14 03:10:18;;;;;;;13.88;10.43;;;;;;;;;;10421178;28;20033;-75
2022/05/14 03:15:18;;;;;;;23.48;9.85;;;;;;;;;;10416684;28;20471;-75
2022/05/14 03:20:19;;;;;;;15.02;10.20;;;;;;;;;;10446240;28;20024;-70
2022/05/14 03:25:19;;;;;;;15.97;11.13;;;;;;;;;;10445597;28;20108;-70
2022/05/14 03:30:19;;;;;;;14.55;9.00;;;;;;;;;;10444733;28;20534;-76
2022/05/14 03:35:19;;;;;;;16.00;10.27;;;;;;;;;;10460829;28;20103;-73
2022/05/14 03:40:20;;;;;;;15.13;9.77;;;;;;;;;;10427035;28;20033;-75
2022/05/14 03:45:20;;;;;;;13.15;10.15;;;;;;;;;;10444233;28;20017;-70
2022/05/14 03:50:22;;;;;;;14.38;9.48;;;;;;;;;;10444675;28;20076;-70
2022/05/14 03:55:22;;;;;;;11.00;9.03;;;;;;;;;;10441484;28;20025;-75
2022/05/14 04:00:22;;;;;;;13.97;9.30;;;;;;;;;;10425945;28;20854;-74
2022/05/14 04:05:23;;;;;;;14.77;10.00;;;;;;;;;;10420395;28;20495;-71
2022/05/14 04:10:23;;;;;;;17.13;9.77;;;;;;;;;;10425629;28;20037;-76
2022/05/14 04:15:23;;;;;;;13.18;9.73;;;;;;;;;;10425486;28;20045;-77
2022/05/14 04:20:24;;;;;;;17.00;9.88;;;;;;;;;;10457316;28;20037;-77
2022/05/14 04:25:24;;;;;;;12.07;9.50;;;;;;;;;;10458404;28;20550;-74
2022/05/14 04:30:25;;;;;;;19.60;9.27;;;;;;;;;;10442385;28;20029;-71
2022/05/14 04:35:25;;;;;;;12.80;8.95;;;;;;;;;;10424814;28;20477;-70
2022/05/14 04:40:27;;;;;;;15.52;8.75;;;;;;;;;;10441077;28;20025;-70
2022/05/14 04:45:27;;;;;;;11.95;8.32;;;;;;;;;;10454209;23;20069;-71
2022/05/14 04:50:28;;;;;;;12.18;9.32;;;;;;;;;;10399188;28;20706;-72
2022/05/14 04:55:28;;;;;;;14.87;9.07;;;;;;;;;;10398938;28;20086;-79
2022/05/14 05:00:28;;;;;;;14.40;9.13;;;;;;;;;;10399144;28;20021;-70
2022/05/14 05:05:29;;;;;;;13.57;9.23;;;;;;;;;;10414370;23;20053;-72
2022/05/14 05:10:29;;;;;;;15.77;8.90;;;;;;;;;;10391620;28;20703;-71
2022/05/14 05:15:30;;;;;;;12.37;9.93;;;;;;;;;;10375290;28;20118;-70
2022/05/14 05:20:30;;;;;;;18.35;9.75;;;;;;;;;;10360114;28;20634;-74
2022/05/14 05:25:31;;;;;;;16.67;10.43;;;;;;;;;;10375578;28;20084;-77
2022/05/14 05:30:31;;;;;;;28.05;9.88;;;;;;;;;;10380436;28;20030;-73
2022/05/14 05:35:31;;;;;;;16.38;10.27;;;;;;;;;;10409861;28;20017;-76
2022/05/14 05:40:31;;;;;;;19.42;11.00;;;;;;;;;;10413485;28;20044;-72
2022/05/14 05:45:32;;;;;;;13.50;9.93;;;;;;;;;;10399521;28;20535;-72
2022/05/14 05:50:32;;;;;;;15.90;8.48;;;;;;;;;;10415150;28;20033;-74
2022/05/14 06:00:52;;;;;;;14.10;9.15;;;;;;;;;;10398043;28;20536;-71
2022/05/14 06:05:52;;;;;;;13.93;8.07;;;;;;;;;;10429535;28;20056;-76
2022/05/14 06:10:53;;;;;;;10.57;7.85;;;;;;;;;;10448645;28;20057;-76
2022/05/14 06:15:53;;;;;;;11.70;8.20;;;;;;;;;;10437201;28;20028;-76
2022/05/14 06:20:53;;;;;;;12.52;8.27;;;;;;;;;;10434468;28;20564;-71
2022/05/14 06:25:53;;;;;;;13.03;7.63;;;;;;;;;;10448479;28;20495;-70
2022/05/14 06:30:55;;;;;;;13.68;7.03;;;;;;;;;;10428404;28;20571;-71
2022/05/14 06:35:56;;;;;;;9.82;7.47;;;;;;;;;;10411277;28;20041;-71
2022/05/14 06:41:03;;;;;;;12.07;6.77;;;;;;;;;;10427567;28;20048;-72
2022/05/14 06:46:03;;;;;;;15.13;6.78;;;;;;;;;;10440845;28;20287;-68
2022/05/14 06:51:05;;;;;;;15.10;6.67;;;;;;;;;;10448991;28;20047;-73
2022/05/14 06:56:06;;;;;;;13.98;7.22;;;;;;;;;;10423517;28;20029;-72
2022/05/14 07:01:07;;;;;;;15.82;6.80;;;;;;;;;;10422997;28;20787;-73
2022/05/14 07:11:26;;;;;;;14.32;5.50;;;;;;;;;;10440885;28;20348;-68
2022/05/14 07:16:26;;;;;;;13.43;6.70;;;;;;;;;;10422042;28;20108;-73
2022/05/14 07:21:27;;;;;;;24.92;6.57;;;;;;;;;;10432389;28;20040;-69
2022/05/14 07:26:27;;;;;;;17.75;6.40;;;;;;;;;;10413356;28;20021;-74
2022/05/14 07:31:28;;;;;;;15.10;7.13;;;;;;;;;;10436417;28;20083;-73
2022/05/14 07:36:30;;;;;;;11.50;5.73;;;;;;;;;;10429701;28;20086;-71
2022/05/14 07:41:32;;;;;;;11.45;6.38;;;;;;;;;;10438853;28;20044;-74
2022/05/14 07:46:34;;;;;;;12.25;5.70;;;;;;;;;;10435968;28;20108;-72
2022/05/14 07:51:34;;;;;;;13.88;5.60;;;;;;;;;;10424569;28;20409;-72
2022/05/14 07:56:34;;;;;;;12.63;5.72;;;;;;;;;;10428463;28;20032;-77
2022/05/14 08:01:35;;;;;;;11.00;6.33;;;;;;;;;;10439538;28;20033;-75
2022/05/14 08:06:35;;;;;;;12.95;6.50;;;;;;;;;;10441806;28;20479;-70
2022/05/14 08:11:35;;;;;;;9.73;6.07;;;;;;;;;;10441161;28;20025;-74
2022/05/14 08:16:36;;;;;;;10.43;5.03;;;;;;;;;;10433762;28;20062;-72
2022/05/14 08:26:55;;;;;;;11.82;5.63;;;;;;;;;;10414474;28;20544;-75
2022/05/14 08:31:55;;;;;;;18.83;6.80;;;;;;;;;;10422362;28;20029;-70
2022/05/14 08:36:56;;;;;;;9.45;5.35;;;;;;;;;;10437602;28;20533;-71
2022/05/14 08:42:00;;;;;;;12.60;5.35;;;;;;;;;;10434676;28;20398;-71
2022/05/14 08:47:06;;;;;;;15.02;5.75;;;;;;;;;;10416603;28;20507;-75
2022/05/14 08:52:15;;;;;;;10.13;4.97;;;;;;;;;;10442890;28;20071;-75
2022/05/14 08:57:23;;;;;;;15.98;5.22;;;;;;;;;;10427805;28;20035;-74
2022/05/14 09:02:29;;;;;;;8.65;5.25;;;;;;;;;;10438600;28;20053;-71
2022/05/14 09:07:29;;;;;;;9.63;5.00;;;;;;;;;;10439157;28;20086;-75
2022/05/14 09:12:32;;;;;;;6.63;5.30;;;;;;;;;;10457021;28;20021;-76
2022/05/14 09:17:33;;;;;;;14.23;5.07;;;;;;;;;;10440130;28;20028;-70
2022/05/14 09:22:36;;;;;;;14.60;5.70;;;;;;;;;;10440227;28;20020;-76
2022/05/14 09:27:44;;;;;;;9.45;5.38;;;;;;;;;;10423730;28;20024;-75
2022/05/14 09:32:45;;;;;;;6.10;4.28;;;;;;;;;;10439797;28;20138;-75
2022/05/14 09:37:46;;;;;;;5.60;4.33;;;;;;;;;;10423301;28;20496;-70
2022/05/14 09:43:05;;;;;;;13.75;4.75;;;;;;;;;;10422328;28;20466;-74
2022/05/14 09:48:09;;;;;;;7.20;5.32;;;;;;;;;;10422121;28;20025;-74
2022/05/14 09:53:09;;;;;;;12.88;5.65;;;;;;;;;;10422150;28;20032;-74
2022/05/14 09:58:33;;;;;;;12.27;5.73;;;;;;;;;;10422303;28;20400;-71
2022/05/14 10:03:40;;;;;;;16.67;7.25;;;;;;;;;;10410468;28;20052;-71
2022/05/14 10:08:58;;;;;;;9.52;6.47;;;;;;;;;;10446860;28;20659;-69
2022/05/14 10:14:08;;;;;;;11.50;6.82;;;;;;;;;;10424830;28;20029;-73
2022/05/14 10:19:14;;;;;;;29.42;8.18;;;;;;;;;;10451628;28;20096;-75
2022/05/14 10:29:38;;;;;;;17.02;9.27;;;;;;;;;;10396452;28;20030;-73
2022/05/14 10:34:57;;;;;;;17.95;8.18;;;;;;;;;;10411556;28;20450;-74
2022/05/14 10:40:07;;;;;;;13.18;8.27;;;;;;;;;;10430665;28;20060;-72
2022/05/14 10:45:07;;;;;;;18.00;7.22;;;;;;;;;;10431228;28;20028;-75
2022/05/14 10:50:19;;;;;;;11.97;6.03;;;;;;;;;;10441724;28;20033;-75
2022/05/14 10:55:23;;;;;;;11.48;6.20;;;;;;;;;;10415582;28;20268;-75
2022/05/14 11:00:36;;;;;;;21.60;8.35;;;;;;;;;;10410851;28;20477;-74
2022/05/14 11:05:56;;;;;;;30.52;9.82;;;;;;;;;;10422590;28;20674;-73
2022/05/14 11:11:20;;;;;;;56.10;15.35;;;;;;;;;;10397323;28;20041;-77
2022/05/14 11:16:20;;;;;;;268.33;54.88;;;;;;;;;;10404205;28;20513;-77
2022/05/14 11:21:34;;;;;;;123.53;23.63;;;;;;;;;;10429629;28;20036;-75
2022/05/14 11:26:43;;;;;;;13.95;8.63;;;;;;;;;;10444954;28;20048;-76
2022/05/14 11:31:52;;;;;;;8.40;6.75;;;;;;;;;;10443975;28;20057;-71
2022/05/14 11:36:54;;;;;;;12.88;6.25;;;;;;;;;;10446453;28;20025;-70
2022/05/14 11:42:06;;;;;;;12.45;6.20;;;;;;;;;;10443963;28;20021;-72
2022/05/14 11:47:20;;;;;;;8.63;5.97;;;;;;;;;;10478541;28;20030;-73
2022/05/14 11:52:23;;;;;;;11.18;5.88;;;;;;;;;;10467967;28;20032;-74
2022/05/14 11:57:28;;;;;;;11.38;6.97;;;;;;;;;;10487090;28;20047;-75
2022/05/14 12:02:35;;;;;;;10.45;7.07;;;;;;;;;;10467592;28;20078;-75
2022/05/14 12:07:47;;;;;;;15.05;6.70;;;;;;;;;;10484182;28;20027;-71
2022/05/14 12:12:56;;;;;;;10.77;6.80;;;;;;;;;;10484766;28;20028;-73
2022/05/14 12:17:57;;;;;;;9.05;6.13;;;;;;;;;;10483373;28;20025;-75
2022/05/14 12:23:00;;;;;;;9.68;6.60;;;;;;;;;;10483379;28;20039;-73
2022/05/14 12:28:01;;;;;;;10.50;6.20;;;;;;;;;;10484456;28;20926;-71
2022/05/14 12:33:13;;;;;;;6.18;5.25;;;;;;;;;;10500400;28;20119;-78
2022/05/14 12:38:26;;;;;;;9.65;5.55;;;;;;;;;;10483995;28;20017;-74
2022/05/14 12:43:27;;;;;;;9.55;6.03;;;;;;;;;;10442786;28;20637;-73
2022/05/14 12:48:29;;;;;;;7.80;5.83;;;;;;;;;;10445608;28;20044;-72
2022/05/14 12:53:37;;;;;;;11.15;6.55;;;;;;;;;;10440650;28;20299;-76
2022/05/14 12:58:39;;;;;;;6.63;5.65;;;;;;;;;;10441521;28;20393;-72
2022/05/14 13:03:41;;;;;;;7.20;5.15;;;;;;;;;;10440072;28;20539;-77
2022/05/14 13:08:46;;;;;;;11.18;6.75;;;;;;;;;;10442247;28;20086;-77
2022/05/14 13:13:49;;;;;;;8.52;6.13;;;;;;;;;;10440355;28;20108;-75
2022/05/14 13:18:54;;;;;;;7.82;4.70;;;;;;;;;;10440760;28;20503;-75
2022/05/14 13:24:05;;;;;;;7.80;3.80;;;;;;;;;;10439620;28;20346;-72
2022/05/14 13:29:12;;;;;;;6.45;3.78;;;;;;;;;;10440648;28;20094;-70
2022/05/14 13:39:31;;;;;;;7.45;3.17;;;;;;;;;;10441417;28;20021;-71
2022/05/14 13:44:32;;;;;;;7.10;3.25;;;;;;;;;;10439704;28;20025;-74
2022/05/14 13:49:34;;;;;;;5.50;3.13;;;;;;;;;;10455758;28;20027;-73
2022/05/14 13:54:37;;;;;;;4.13;3.00;;;;;;;;;;10438318;28;20055;-69
2022/05/14 13:59:38;;;;;;;9.38;2.38;;;;;;;;;;10439058;28;20025;-72
2022/05/14 14:04:40;;;;;;;8.48;3.28;;;;;;;;;;10437865;28;20053;-72
2022/05/14 14:09:42;;;;;;;5.43;3.08;;;;;;;;;;10438616;28;20028;-77
2022/05/14 14:14:43;;;;;;;6.75;2.80;;;;;;;;;;10416186;28;20477;-73
2022/05/14 14:19:43;;;;;;;5.60;2.63;;;;;;;;;;10411445;28;20095;-73
2022/05/14 14:24:49;;;;;;;5.07;2.97;;;;;;;;;;10411537;28;20575;-72
2022/05/14 14:29:49;;;;;;;5.95;3.58;;;;;;;;;;10408155;28;20421;-73
2022/05/14 14:34:49;;;;;;;8.53;3.03;;;;;;;;;;10403279;28;20064;-71
2022/05/14 14:39:50;;;;;;;4.88;2.70;;;;;;;;;;10417642;28;20024;-72
2022/05/14 14:44:51;;;;;;;5.30;2.92;;;;;;;;;;10432111;28;20033;-71
2022/05/14 14:49:51;;;;;;;3.22;2.92;;;;;;;;;;10439179;28;20415;-75
2022/05/14 14:54:52;;;;;;;6.40;3.87;;;;;;;;;;10435348;28;20025;-69
2022/05/14 14:59:52;;;;;;;7.40;3.57;;;;;;;;;;10427003;28;20267;-70
2022/05/14 15:04:56;;;;;;;11.18;4.28;;;;;;;;;;10435590;28;20053;-74
2022/05/14 15:09:56;;;;;;;4.55;3.22;;;;;;;;;;10440727;28;20024;-71
2022/05/14 15:14:57;;;;;;;8.07;3.30;;;;;;;;;;10430649;28;20040;-73
2022/05/14 15:19:57;;;;;;;4.13;3.38;;;;;;;;;;10444807;28;20024;-72
2022/05/14 15:24:59;;;;;;;5.20;3.80;;;;;;;;;;10436669;28;20042;-71
2022/05/14 15:30:00;;;;;;;8.57;4.13;;;;;;;;;;10463943;23;20056;-73
2022/05/14 15:35:00;;;;;;;7.33;3.40;;;;;;;;;;10441665;28;20503;-73
2022/05/14 15:40:01;;;;;;;8.23;3.90;;;;;;;;;;10438120;28;20093;-72
2022/05/14 15:45:05;;;;;;;5.90;3.40;;;;;;;;;;10455986;28;20063;-73
2022/05/14 15:50:07;;;;;;;6.63;3.28;;;;;;;;;;10432791;28;20119;-76
2022/05/14 15:55:09;;;;;;;7.18;4.53;;;;;;;;;;10448368;28;20025;-75
2022/05/14 16:00:11;;;;;;;10.40;6.57;;;;;;;;;;10446649;28;20042;-74
2022/05/14 16:05:12;;;;;;;8.70;4.20;;;;;;;;;;10501812;28;20588;-74
2022/05/14 16:20:52;;;;;;;7.45;4.82;;;;;;;;;;10488410;28;20066;-71
2022/05/14 16:25:53;;;;;;;13.43;5.70;;;;;;;;;;10488899;28;20143;-73
2022/05/14 16:30:54;;;;;;;10.23;5.28;;;;;;;;;;10488546;28;20618;-74
2022/05/14 16:35:54;;;;;;;9.63;5.65;;;;;;;;;;10505165;28;20039;-70
2022/05/14 16:40:54;;;;;;;11.23;6.40;;;;;;;;;;10496406;28;20039;-69
2022/05/14 16:45:55;;;;;;;9.60;6.40;;;;;;;;;;10506277;28;20031;-72
2022/05/14 16:50:56;;;;;;;13.83;7.17;;;;;;;;;;10498148;28;20031;-70
2022/05/14 16:55:57;;;;;;;8.43;6.00;;;;;;;;;;10494939;28;20811;-72
2022/05/14 17:00:57;;;;;;;14.75;7.88;;;;;;;;;;10495874;28;20120;-71
2022/05/14 17:05:58;;;;;;;18.50;7.20;;;;;;;;;;10486089;28;20078;-73
2022/05/14 17:10:58;;;;;;;12.10;7.37;;;;;;;;;;10480490;28;20480;-71
2022/05/14 17:15:58;;;;;;;14.50;7.60;;;;;;;;;;10502813;28;20024;-70
2022/05/14 17:21:00;;;;;;;12.60;7.05;;;;;;;;;;10478711;28;20109;-75
2022/05/14 17:26:00;;;;;;;11.27;6.70;;;;;;;;;;10452736;23;20068;-75
2022/05/14 17:31:00;;;;;;;18.13;8.18;;;;;;;;;;10407244;28;20028;-72
2022/05/14 17:36:01;;;;;;;14.10;7.47;;;;;;;;;;10404936;28;20679;-73
2022/05/14 17:41:01;;;;;;;17.60;7.70;;;;;;;;;;10413641;28;20025;-79
2022/05/14 17:46:01;;;;;;;12.45;6.70;;;;;;;;;;10410368;28;20013;-74
2022/05/14 17:51:02;;;;;;;14.03;8.17;;;;;;;;;;10420721;28;20035;-75
2022/05/14 17:56:04;;;;;;;17.73;7.78;;;;;;;;;;10418507;28;20021;-69
2022/05/14 18:01:04;;;;;;;12.52;7.05;;;;;;;;;;10402715;28;20505;-72
2022/05/14 18:06:05;;;;;;;13.32;6.75;;;;;;;;;;10471024;23;20051;-74
2022/05/14 18:16:24;;;;;;;14.88;7.50;;;;;;;;;;10427736;28;20017;-70
2022/05/14 18:21:25;;;;;;;12.63;7.80;;;;;;;;;;10434835;28;20037;-70
2022/05/14 18:26:26;;;;;;;10.75;7.85;;;;;;;;;;10435542;28;20033;-73
2022/05/14 18:31:28;;;;;;;15.27;8.65;;;;;;;;;;10418416;28;20036;-70
2022/05/14 18:36:30;;;;;;;14.70;8.45;;;;;;;;;;10438294;28;20025;-71
2022/05/14 18:41:34;;;;;;;15.32;8.95;;;;;;;;;;10425656;28;20501;-71
2022/05/14 18:46:36;;;;;;;13.32;9.68;;;;;;;;;;10433986;28;20440;-70
2022/05/14 18:51:36;;;;;;;15.98;10.18;;;;;;;;;;10435448;28;20198;-71
2022/05/14 18:56:37;;;;;;;19.20;9.13;;;;;;;;;;10434396;28;20091;-69
2022/05/14 19:01:37;;;;;;;16.23;9.73;;;;;;;;;;10401414;28;20025;-70
2022/05/14 19:11:56;;;;;;;17.05;10.32;;;;;;;;;;10347947;28;20033;-70
2022/05/14 19:16:57;;;;;;;18.73;9.00;;;;;;;;;;10347689;28;20026;-70
2022/05/14 19:21:57;;;;;;;18.60;10.25;;;;;;;;;;10343393;28;20045;-72
2022/05/14 19:26:57;;;;;;;18.80;10.65;;;;;;;;;;10359141;28;20044;-71
2022/05/14 19:31:58;;;;;;;19.25;10.90;;;;;;;;;;10378226;23;20485;-74
2022/05/14 19:37:00;;;;;;;16.55;10.30;;;;;;;;;;10418918;28;20456;-70
2022/05/14 19:42:22;;;;;;;22.27;12.45;;;;;;;;;;10426117;28;20027;-73
2022/05/14 19:47:24;;;;;;;20.13;11.45;;;;;;;;;;10420199;28;20032;-75
2022/05/14 19:52:26;;;;;;;18.27;11.55;;;;;;;;;;10425036;28;20162;-71
2022/05/14 19:57:27;;;;;;;25.85;14.00;;;;;;;;;;10441329;28;20102;-69
2022/05/14 20:02:27;;;;;;;19.38;11.82;;;;;;;;;;10410992;28;20108;-72
2022/05/14 20:07:27;;;;;;;16.75;10.75;;;;;;;;;;10413860;28;20504;-73
2022/05/14 20:12:28;;;;;;;17.25;10.82;;;;;;;;;;10412610;28;20480;-74
2022/05/14 20:22:47;;;;;;;15.48;11.05;;;;;;;;;;10441690;28;20404;-74
2022/05/14 20:27:49;;;;;;;12.32;9.07;;;;;;;;;;10423369;28;20017;-70
2022/05/14 20:32:50;;;;;;;18.25;9.20;;;;;;;;;;10423249;28;20506;-74
2022/05/14 20:37:50;;;;;;;11.63;8.93;;;;;;;;;;10387740;28;20021;-69
2022/05/14 20:42:50;;;;;;;15.23;9.37;;;;;;;;;;10401948;28;20115;-73
2022/05/14 20:47:50;;;;;;;13.13;9.10;;;;;;;;;;10426786;28;20094;-73
2022/05/14 20:52:51;;;;;;;19.77;10.43;;;;;;;;;;10449255;28;20039;-72
2022/05/14 20:57:52;;;;;;;16.37;9.83;;;;;;;;;;10441395;28;20102;-73
2022/05/14 21:02:52;;;;;;;14.10;10.50;;;;;;;;;;10423033;28;20355;-70
2022/05/14 21:07:52;;;;;;;15.10;10.43;;;;;;;;;;10398611;28;20405;-72
2022/05/14 21:12:53;;;;;;;13.40;9.95;;;;;;;;;;10401623;28;20021;-69
2022/05/14 21:17:53;;;;;;;18.92;12.05;;;;;;;;;;10398277;28;20055;-73
2022/05/14 21:22:54;;;;;;;18.27;11.70;;;;;;;;;;10399961;28;20025;-73
2022/05/14 21:27:54;;;;;;;19.17;12.40;;;;;;;;;;10399367;28;20037;-70
2022/05/14 21:32:56;;;;;;;23.35;12.05;;;;;;;;;;10409443;28;20040;-72
2022/05/14 21:37:57;;;;;;;20.15;10.45;;;;;;;;;;10434792;28;20017;-71
2022/05/14 21:43:16;;;;;;;16.80;9.68;;;;;;;;;;10405943;28;20036;-74
2022/05/14 21:48:17;;;;;;;14.35;10.10;;;;;;;;;;10421361;28;20029;-74
2022/05/14 21:53:18;;;;;;;14.20;10.25;;;;;;;;;;10440208;28;20033;-70
2022/05/14 21:58:20;;;;;;;17.85;9.98;;;;;;;;;;10421013;28;20021;-75
2022/05/14 22:03:21;;;;;;;14.18;9.75;;;;;;;;;;10419280;28;20420;-74
2022/05/14 22:08:21;;;;;;;14.82;9.68;;;;;;;;;;10420581;28;20025;-73
2022/05/14 22:13:21;;;;;;;14.85;10.43;;;;;;;;;;10437052;28;20544;-70
2022/05/14 22:18:22;;;;;;;13.43;9.15;;;;;;;;;;10448276;28;20027;-75
2022/05/14 22:23:22;;;;;;;11.43;9.13;;;;;;;;;;10466338;23;20036;-72
2022/05/14 22:28:23;;;;;;;14.18;8.80;;;;;;;;;;10354889;28;20060;-72
2022/05/14 22:33:23;;;;;;;15.48;9.32;;;;;;;;;;10354308;28;20030;-70
2022/05/14 22:38:23;;;;;;;14.10;9.57;;;;;;;;;;10354617;28;20432;-73
2022/05/14 22:43:25;;;;;;;14.90;10.07;;;;;;;;;;10356032;28;20033;-71
2022/05/14 22:48:26;;;;;;;15.90;9.25;;;;;;;;;;10355002;28;20057;-74
2022/05/14 22:53:26;;;;;;;12.50;8.75;;;;;;;;;;10355581;28;20030;-74
2022/05/14 22:58:28;;;;;;;12.38;8.07;;;;;;;;;;10345283;28;20527;-72
2022/05/14 23:03:29;;;;;;;11.75;8.55;;;;;;;;;;10426603;28;20202;-71
2022/05/14 23:08:32;;;;;;;16.42;8.88;;;;;;;;;;10412074;28;20090;-70
2022/05/14 23:13:32;;;;;;;14.90;9.38;;;;;;;;;;10427733;28;20029;-72
2022/05/14 23:18:33;;;;;;;10.95;8.20;;;;;;;;;;10410637;28;20051;-72
2022/05/14 23:23:34;;;;;;;18.83;7.87;;;;;;;;;;10442507;28;20065;-73
2022/05/14 23:28:35;;;;;;;10.27;7.72;;;;;;;;;;10385630;28;20472;-74
2022/05/14 23:33:35;;;;;;;16.10;7.78;;;;;;;;;;10385180;28;20034;-77
2022/05/14 23:38:36;;;;;;;11.10;7.10;;;;;;;;;;10385251;28;20443;-72
2022/05/14 23:43:36;;;;;;;11.48;6.38;;;;;;;;;;10412577;28;20552;-69
2022/05/14 23:48:36;;;;;;;10.85;6.70;;;;;;;;;;10415736;28;20041;-73
2022/05/14 23:53:37;;;;;;;10.87;6.63;;;;;;;;;;10380554;28;20025;-71
